sensor_id;sensor_type;location;lat;lon;timestamp;P1;durP1;ratioP1;P2;durP2;ratioP2
44764;SDS011;30484;52.382;5.260;2024-02-26T00:00:08;13.02;;;7.25;;
44764;SDS011;30484;52.382;5.260;2024-02-26T00:02:38;14.35;;;7.20;;
44764;SDS011;30484;52.382;5.260;2024-02-26T00:05:07;10.98;;;6.78;;
44764;SDS011;30484;52.382;5.260;2024-02-26T00:07:37;9.93;;;7.07;;
44764;SDS011;30484;52.382;5.260;2024-02-26T00:10:08;11.70;;;7.10;;
44764;SDS011;30484;52.382;5.260;2024-02-26T00:12:37;12.43;;;7.25;;
44764;SDS011;30484;52.382;5.260;2024-02-26T00:15:06;14.13;;;7.45;;
44764;SDS011;30484;52.382;5.260;2024-02-26T00:17:36;15.68;;;8.05;;
44764;SDS011;30484;52.382;5.260;2024-02-26T00:20:06;16.02;;;7.88;;
44764;SDS011;30484;52.382;5.260;2024-02-26T00:22:35;15.35;;;8.57;;
44764;SDS011;30484;52.382;5.260;2024-02-26T00:25:05;15.60;;;8.20;;
44764;SDS011;30484;52.382;5.260;2024-02-26T00:27:36;15.23;;;9.18;;
44764;SDS011;30484;52.382;5.260;2024-02-26T00:30:06;14.45;;;8.82;;
44764;SDS011;30484;52.382;5.260;2024-02-26T00:32:36;16.15;;;9.40;;
44764;SDS011;30484;52.382;5.260;2024-02-26T00:35:08;20.70;;;11.05;;
44764;SDS011;30484;52.382;5.260;2024-02-26T00:37:37;18.63;;;10.13;;
44764;SDS011;30484;52.382;5.260;2024-02-26T00:40:08;19.88;;;10.27;;
44764;SDS011;30484;52.382;5.260;2024-02-26T00:42:37;15.60;;;10.20;;
44764;SDS011;30484;52.382;5.260;2024-02-26T00:45:06;19.48;;;10.90;;
44764;SDS011;30484;52.382;5.260;2024-02-26T00:47:35;22.50;;;11.85;;
44764;SDS011;30484;52.382;5.260;2024-02-26T00:50:04;16.15;;;10.27;;
44764;SDS011;30484;52.382;5.260;2024-02-26T00:52:34;18.20;;;10.48;;
44764;SDS011;30484;52.382;5.260;2024-02-26T00:55:04;21.58;;;10.20;;
44764;SDS011;30484;52.382;5.260;2024-02-26T00:57:35;21.33;;;10.60;;
44764;SDS011;30484;52.382;5.260;2024-02-26T01:00:05;18.80;;;11.02;;
44764;SDS011;30484;52.382;5.260;2024-02-26T01:02:35;19.90;;;10.27;;
44764;SDS011;30484;52.382;5.260;2024-02-26T01:05:05;16.83;;;9.55;;
44764;SDS011;30484;52.382;5.260;2024-02-26T01:07:35;15.85;;;9.50;;
44764;SDS011;30484;52.382;5.260;2024-02-26T01:10:04;20.42;;;10.00;;
44764;SDS011;30484;52.382;5.260;2024-02-26T01:12:35;18.33;;;9.10;;
44764;SDS011;30484;52.382;5.260;2024-02-26T01:15:05;17.27;;;9.10;;
44764;SDS011;30484;52.382;5.260;2024-02-26T01:17:35;18.95;;;9.20;;
44764;SDS011;30484;52.382;5.260;2024-02-26T01:20:05;15.85;;;9.43;;
44764;SDS011;30484;52.382;5.260;2024-02-26T01:22:36;16.70;;;8.88;;
44764;SDS011;30484;52.382;5.260;2024-02-26T01:25:05;21.30;;;9.50;;
44764;SDS011;30484;52.382;5.260;2024-02-26T01:27:37;17.40;;;10.27;;
44764;SDS011;30484;52.382;5.260;2024-02-26T01:30:08;17.38;;;9.93;;
44764;SDS011;30484;52.382;5.260;2024-02-26T01:32:38;16.73;;;10.30;;
44764;SDS011;30484;52.382;5.260;2024-02-26T01:35:07;23.25;;;10.70;;
44764;SDS011;30484;52.382;5.260;2024-02-26T01:37:38;20.00;;;11.32;;
44764;SDS011;30484;52.382;5.260;2024-02-26T01:40:08;18.13;;;11.82;;
44764;SDS011;30484;52.382;5.260;2024-02-26T01:42:39;22.50;;;11.85;;
44764;SDS011;30484;52.382;5.260;2024-02-26T01:45:09;19.13;;;12.07;;
44764;SDS011;30484;52.382;5.260;2024-02-26T01:47:50;21.25;;;13.00;;
44764;SDS011;30484;52.382;5.260;2024-02-26T01:50:21;23.23;;;13.18;;
44764;SDS011;30484;52.382;5.260;2024-02-26T01:52:51;22.88;;;13.32;;
44764;SDS011;30484;52.382;5.260;2024-02-26T01:55:20;22.45;;;13.30;;
44764;SDS011;30484;52.382;5.260;2024-02-26T01:57:53;25.90;;;14.82;;
44764;SDS011;30484;52.382;5.260;2024-02-26T02:00:22;28.63;;;14.48;;
44764;SDS011;30484;52.382;5.260;2024-02-26T02:02:52;25.98;;;14.43;;
44764;SDS011;30484;52.382;5.260;2024-02-26T02:05:22;24.33;;;14.23;;
44764;SDS011;30484;52.382;5.260;2024-02-26T02:07:52;27.00;;;13.85;;
44764;SDS011;30484;52.382;5.260;2024-02-26T02:10:21;26.65;;;14.65;;
44764;SDS011;30484;52.382;5.260;2024-02-26T02:12:53;29.17;;;14.75;;
44764;SDS011;30484;52.382;5.260;2024-02-26T02:15:22;26.85;;;14.63;;
44764;SDS011;30484;52.382;5.260;2024-02-26T02:17:51;26.63;;;14.50;;
44764;SDS011;30484;52.382;5.260;2024-02-26T02:20:24;24.25;;;14.00;;
44764;SDS011;30484;52.382;5.260;2024-02-26T02:22:54;26.40;;;14.52;;
44764;SDS011;30484;52.382;5.260;2024-02-26T02:25:23;24.85;;;14.02;;
44764;SDS011;30484;52.382;5.260;2024-02-26T02:27:52;26.60;;;15.13;;
44764;SDS011;30484;52.382;5.260;2024-02-26T02:30:21;27.60;;;14.38;;
44764;SDS011;30484;52.382;5.260;2024-02-26T02:32:59;27.70;;;15.18;;
44764;SDS011;30484;52.382;5.260;2024-02-26T02:35:30;30.85;;;14.98;;
44764;SDS011;30484;52.382;5.260;2024-02-26T02:37:59;26.88;;;14.65;;
44764;SDS011;30484;52.382;5.260;2024-02-26T02:40:28;27.38;;;15.35;;
44764;SDS011;30484;52.382;5.260;2024-02-26T02:42:57;25.77;;;14.85;;
44764;SDS011;30484;52.382;5.260;2024-02-26T02:45:26;26.88;;;15.00;;
44764;SDS011;30484;52.382;5.260;2024-02-26T02:47:55;27.45;;;14.90;;
44764;SDS011;30484;52.382;5.260;2024-02-26T02:50:26;29.52;;;15.77;;
44764;SDS011;30484;52.382;5.260;2024-02-26T02:52:56;27.60;;;15.60;;
44764;SDS011;30484;52.382;5.260;2024-02-26T02:55:25;25.40;;;14.88;;
44764;SDS011;30484;52.382;5.260;2024-02-26T02:57:54;26.33;;;14.68;;
44764;SDS011;30484;52.382;5.260;2024-02-26T03:00:23;27.13;;;14.82;;
44764;SDS011;30484;52.382;5.260;2024-02-26T03:02:55;30.98;;;15.20;;
44764;SDS011;30484;52.382;5.260;2024-02-26T03:05:23;27.02;;;14.90;;
44764;SDS011;30484;52.382;5.260;2024-02-26T03:07:52;29.15;;;15.07;;
44764;SDS011;30484;52.382;5.260;2024-02-26T03:10:22;25.77;;;14.68;;
44764;SDS011;30484;52.382;5.260;2024-02-26T03:12:51;27.95;;;14.60;;
44764;SDS011;30484;52.382;5.260;2024-02-26T03:15:22;28.27;;;14.55;;
44764;SDS011;30484;52.382;5.260;2024-02-26T03:17:52;25.73;;;14.05;;
44764;SDS011;30484;52.382;5.260;2024-02-26T03:20:21;26.35;;;14.13;;
44764;SDS011;30484;52.382;5.260;2024-02-26T03:22:50;25.95;;;14.35;;
44764;SDS011;30484;52.382;5.260;2024-02-26T03:25:18;27.33;;;13.35;;
44764;SDS011;30484;52.382;5.260;2024-02-26T03:27:49;27.50;;;15.35;;
44764;SDS011;30484;52.382;5.260;2024-02-26T03:30:17;26.27;;;13.60;;
44764;SDS011;30484;52.382;5.260;2024-02-26T03:32:46;27.15;;;14.75;;
44764;SDS011;30484;52.382;5.260;2024-02-26T03:35:15;27.00;;;14.68;;
44764;SDS011;30484;52.382;5.260;2024-02-26T03:37:43;27.10;;;14.13;;
44764;SDS011;30484;52.382;5.260;2024-02-26T03:40:16;24.90;;;14.65;;
44764;SDS011;30484;52.382;5.260;2024-02-26T03:42:46;26.92;;;14.55;;
44764;SDS011;30484;52.382;5.260;2024-02-26T03:45:17;27.08;;;14.60;;
44764;SDS011;30484;52.382;5.260;2024-02-26T03:47:45;27.35;;;14.73;;
44764;SDS011;30484;52.382;5.260;2024-02-26T03:50:14;28.10;;;15.43;;
44764;SDS011;30484;52.382;5.260;2024-02-26T03:52:43;28.60;;;13.77;;
44764;SDS011;30484;52.382;5.260;2024-02-26T03:55:12;25.40;;;14.43;;
44764;SDS011;30484;52.382;5.260;2024-02-26T03:57:41;25.38;;;14.25;;
44764;SDS011;30484;52.382;5.260;2024-02-26T04:00:13;30.73;;;14.98;;
44764;SDS011;30484;52.382;5.260;2024-02-26T04:02:42;29.75;;;15.25;;
44764;SDS011;30484;52.382;5.260;2024-02-26T04:05:10;27.08;;;15.45;;
44764;SDS011;30484;52.382;5.260;2024-02-26T04:07:42;27.15;;;14.68;;
44764;SDS011;30484;52.382;5.260;2024-02-26T04:10:10;28.98;;;15.15;;
44764;SDS011;30484;52.382;5.260;2024-02-26T04:12:40;28.30;;;15.18;;
44764;SDS011;30484;52.382;5.260;2024-02-26T04:15:11;31.00;;;15.32;;
44764;SDS011;30484;52.382;5.260;2024-02-26T04:17:41;31.83;;;14.90;;
44764;SDS011;30484;52.382;5.260;2024-02-26T04:20:13;26.80;;;14.00;;
44764;SDS011;30484;52.382;5.260;2024-02-26T04:22:43;26.83;;;14.02;;
44764;SDS011;30484;52.382;5.260;2024-02-26T04:25:13;30.95;;;15.88;;
44764;SDS011;30484;52.382;5.260;2024-02-26T04:27:42;32.30;;;16.83;;
44764;SDS011;30484;52.382;5.260;2024-02-26T04:30:12;29.88;;;15.38;;
44764;SDS011;30484;52.382;5.260;2024-02-26T04:32:43;31.83;;;15.23;;
44764;SDS011;30484;52.382;5.260;2024-02-26T04:35:12;32.67;;;15.57;;
44764;SDS011;30484;52.382;5.260;2024-02-26T04:37:41;32.65;;;15.13;;
44764;SDS011;30484;52.382;5.260;2024-02-26T04:40:10;33.95;;;16.52;;
44764;SDS011;30484;52.382;5.260;2024-02-26T04:42:39;36.15;;;15.88;;
44764;SDS011;30484;52.382;5.260;2024-02-26T04:45:11;34.42;;;17.75;;
44764;SDS011;30484;52.382;5.260;2024-02-26T04:47:41;35.47;;;17.00;;
44764;SDS011;30484;52.382;5.260;2024-02-26T04:50:09;37.15;;;18.08;;
44764;SDS011;30484;52.382;5.260;2024-02-26T04:52:38;36.67;;;18.23;;
44764;SDS011;30484;52.382;5.260;2024-02-26T04:55:07;36.03;;;18.38;;
44764;SDS011;30484;52.382;5.260;2024-02-26T04:57:36;38.85;;;18.17;;
44764;SDS011;30484;52.382;5.260;2024-02-26T05:00:04;40.90;;;18.83;;
44764;SDS011;30484;52.382;5.260;2024-02-26T05:02:36;37.15;;;17.52;;
44764;SDS011;30484;52.382;5.260;2024-02-26T05:05:05;34.85;;;17.98;;
44764;SDS011;30484;52.382;5.260;2024-02-26T05:07:39;43.38;;;20.15;;
44764;SDS011;30484;52.382;5.260;2024-02-26T05:10:09;44.88;;;20.23;;
44764;SDS011;30484;52.382;5.260;2024-02-26T05:12:37;42.75;;;20.40;;
44764;SDS011;30484;52.382;5.260;2024-02-26T05:15:09;40.33;;;20.92;;
44764;SDS011;30484;52.382;5.260;2024-02-26T05:17:41;43.90;;;20.05;;
44764;SDS011;30484;52.382;5.260;2024-02-26T05:20:12;40.45;;;20.20;;
44764;SDS011;30484;52.382;5.260;2024-02-26T05:22:42;42.13;;;21.15;;
44764;SDS011;30484;52.382;5.260;2024-02-26T05:25:11;42.97;;;21.13;;
44764;SDS011;30484;52.382;5.260;2024-02-26T05:27:42;41.80;;;20.00;;
44764;SDS011;30484;52.382;5.260;2024-02-26T05:30:11;45.88;;;22.83;;
44764;SDS011;30484;52.382;5.260;2024-02-26T05:32:42;47.50;;;23.33;;
44764;SDS011;30484;52.382;5.260;2024-02-26T05:35:11;42.63;;;22.27;;
44764;SDS011;30484;52.382;5.260;2024-02-26T05:37:41;41.90;;;21.92;;
44764;SDS011;30484;52.382;5.260;2024-02-26T05:40:10;41.65;;;21.88;;
44764;SDS011;30484;52.382;5.260;2024-02-26T05:42:40;44.60;;;22.98;;
44764;SDS011;30484;52.382;5.260;2024-02-26T05:45:11;44.28;;;22.35;;
44764;SDS011;30484;52.382;5.260;2024-02-26T05:47:42;48.28;;;22.83;;
44764;SDS011;30484;52.382;5.260;2024-02-26T05:50:10;41.97;;;22.80;;
44764;SDS011;30484;52.382;5.260;2024-02-26T05:52:41;43.20;;;21.20;;
44764;SDS011;30484;52.382;5.260;2024-02-26T05:55:10;44.75;;;22.48;;
44764;SDS011;30484;52.382;5.260;2024-02-26T05:57:40;43.88;;;22.60;;
44764;SDS011;30484;52.382;5.260;2024-02-26T06:00:09;41.97;;;21.55;;
44764;SDS011;30484;52.382;5.260;2024-02-26T06:02:42;45.70;;;21.50;;
44764;SDS011;30484;52.382;5.260;2024-02-26T06:05:11;43.35;;;20.90;;
44764;SDS011;30484;52.382;5.260;2024-02-26T06:07:40;44.78;;;21.02;;
44764;SDS011;30484;52.382;5.260;2024-02-26T06:10:08;40.78;;;20.77;;
44764;SDS011;30484;52.382;5.260;2024-02-26T06:12:40;45.70;;;21.10;;
44764;SDS011;30484;52.382;5.260;2024-02-26T06:15:09;39.63;;;21.35;;
44764;SDS011;30484;52.382;5.260;2024-02-26T06:17:38;39.20;;;21.23;;
44764;SDS011;30484;52.382;5.260;2024-02-26T06:20:10;38.50;;;21.45;;
44764;SDS011;30484;52.382;5.260;2024-02-26T06:22:39;37.25;;;20.75;;
44764;SDS011;30484;52.382;5.260;2024-02-26T06:25:09;40.20;;;21.50;;
44764;SDS011;30484;52.382;5.260;2024-02-26T06:27:37;38.63;;;20.55;;
44764;SDS011;30484;52.382;5.260;2024-02-26T06:30:06;35.00;;;19.27;;
44764;SDS011;30484;52.382;5.260;2024-02-26T06:32:37;35.08;;;19.75;;
44764;SDS011;30484;52.382;5.260;2024-02-26T06:35:07;37.58;;;19.23;;
44764;SDS011;30484;52.382;5.260;2024-02-26T06:37:38;37.47;;;19.77;;
44764;SDS011;30484;52.382;5.260;2024-02-26T06:40:07;31.63;;;18.50;;
44764;SDS011;30484;52.382;5.260;2024-02-26T06:42:37;32.50;;;17.60;;
44764;SDS011;30484;52.382;5.260;2024-02-26T06:45:05;31.15;;;18.05;;
44764;SDS011;30484;52.382;5.260;2024-02-26T06:47:35;32.20;;;17.42;;
44764;SDS011;30484;52.382;5.260;2024-02-26T06:50:04;31.90;;;16.92;;
44764;SDS011;30484;52.382;5.260;2024-02-26T06:52:36;31.63;;;15.90;;
44764;SDS011;30484;52.382;5.260;2024-02-26T06:55:04;27.75;;;15.32;;
44764;SDS011;30484;52.382;5.260;2024-02-26T06:57:35;28.48;;;15.70;;
44764;SDS011;30484;52.382;5.260;2024-02-26T07:00:04;30.13;;;15.48;;
44764;SDS011;30484;52.382;5.260;2024-02-26T07:02:34;30.90;;;16.20;;
44764;SDS011;30484;52.382;5.260;2024-02-26T07:05:05;25.58;;;14.07;;
44764;SDS011;30484;52.382;5.260;2024-02-26T07:07:36;24.23;;;13.63;;
44764;SDS011;30484;52.382;5.260;2024-02-26T07:10:06;23.27;;;14.02;;
44764;SDS011;30484;52.382;5.260;2024-02-26T07:12:35;26.58;;;13.48;;
44764;SDS011;30484;52.382;5.260;2024-02-26T07:15:05;24.73;;;12.85;;
44764;SDS011;30484;52.382;5.260;2024-02-26T07:17:35;26.42;;;13.68;;
44764;SDS011;30484;52.382;5.260;2024-02-26T07:20:06;22.60;;;12.73;;
44764;SDS011;30484;52.382;5.260;2024-02-26T07:22:39;24.90;;;12.43;;
44764;SDS011;30484;52.382;5.260;2024-02-26T07:25:08;23.45;;;12.32;;
44764;SDS011;30484;52.382;5.260;2024-02-26T07:27:40;19.80;;;11.18;;
44764;SDS011;30484;52.382;5.260;2024-02-26T07:30:09;26.17;;;12.40;;
44764;SDS011;30484;52.382;5.260;2024-02-26T07:32:39;22.45;;;12.32;;
44764;SDS011;30484;52.382;5.260;2024-02-26T07:35:07;27.00;;;12.30;;
44764;SDS011;30484;52.382;5.260;2024-02-26T07:37:36;20.35;;;11.40;;
44764;SDS011;30484;52.382;5.260;2024-02-26T07:40:07;22.27;;;11.02;;
44764;SDS011;30484;52.382;5.260;2024-02-26T07:42:36;16.30;;;10.02;;
44764;SDS011;30484;52.382;5.260;2024-02-26T07:45:06;19.60;;;11.10;;
44764;SDS011;30484;52.382;5.260;2024-02-26T07:47:35;20.02;;;10.50;;
44764;SDS011;30484;52.382;5.260;2024-02-26T07:50:07;16.10;;;9.63;;
44764;SDS011;30484;52.382;5.260;2024-02-26T07:52:40;16.98;;;9.60;;
44764;SDS011;30484;52.382;5.260;2024-02-26T07:55:09;17.98;;;9.05;;
44764;SDS011;30484;52.382;5.260;2024-02-26T07:57:41;18.55;;;8.57;;
44764;SDS011;30484;52.382;5.260;2024-02-26T08:00:10;13.60;;;8.02;;
44764;SDS011;30484;52.382;5.260;2024-02-26T08:02:43;15.57;;;7.57;;
44764;SDS011;30484;52.382;5.260;2024-02-26T08:05:12;15.77;;;8.38;;
44764;SDS011;30484;52.382;5.260;2024-02-26T08:07:42;12.57;;;7.00;;
44764;SDS011;30484;52.382;5.260;2024-02-26T08:10:11;13.82;;;7.47;;
44764;SDS011;30484;52.382;5.260;2024-02-26T08:12:40;13.73;;;7.53;;
44764;SDS011;30484;52.382;5.260;2024-02-26T08:15:08;15.75;;;7.03;;
44764;SDS011;30484;52.382;5.260;2024-02-26T08:17:38;19.90;;;7.18;;
44764;SDS011;30484;52.382;5.260;2024-02-26T08:20:07;11.32;;;6.38;;
44764;SDS011;30484;52.382;5.260;2024-02-26T08:22:37;12.40;;;6.50;;
44764;SDS011;30484;52.382;5.260;2024-02-26T08:25:07;11.32;;;7.00;;
44764;SDS011;30484;52.382;5.260;2024-02-26T08:27:37;11.75;;;6.47;;
44764;SDS011;30484;52.382;5.260;2024-02-26T08:30:06;12.07;;;6.03;;
44764;SDS011;30484;52.382;5.260;2024-02-26T08:32:36;13.13;;;6.38;;
44764;SDS011;30484;52.382;5.260;2024-02-26T08:35:05;10.23;;;6.38;;
44764;SDS011;30484;52.382;5.260;2024-02-26T08:37:34;9.88;;;6.35;;
44764;SDS011;30484;52.382;5.260;2024-02-26T08:40:03;8.82;;;6.30;;
44764;SDS011;30484;52.382;5.260;2024-02-26T08:42:38;10.20;;;5.55;;
44764;SDS011;30484;52.382;5.260;2024-02-26T08:45:08;9.95;;;5.95;;
44764;SDS011;30484;52.382;5.260;2024-02-26T08:47:37;9.57;;;5.65;;
44764;SDS011;30484;52.382;5.260;2024-02-26T08:50:06;11.15;;;6.22;;
44764;SDS011;30484;52.382;5.260;2024-02-26T08:52:38;10.20;;;5.70;;
44764;SDS011;30484;52.382;5.260;2024-02-26T08:55:08;8.68;;;5.30;;
44764;SDS011;30484;52.382;5.260;2024-02-26T08:57:36;7.00;;;4.85;;
44764;SDS011;30484;52.382;5.260;2024-02-26T09:00:07;11.43;;;6.13;;
44764;SDS011;30484;52.382;5.260;2024-02-26T09:02:37;7.80;;;5.35;;
44764;SDS011;30484;52.382;5.260;2024-02-26T09:05:06;9.25;;;5.15;;
44764;SDS011;30484;52.382;5.260;2024-02-26T09:07:35;12.20;;;6.13;;
44764;SDS011;30484;52.382;5.260;2024-02-26T09:10:04;9.73;;;5.55;;
44764;SDS011;30484;52.382;5.260;2024-02-26T09:12:35;8.77;;;5.85;;
44764;SDS011;30484;52.382;5.260;2024-02-26T09:15:07;9.25;;;5.47;;
44764;SDS011;30484;52.382;5.260;2024-02-26T09:17:38;11.35;;;5.50;;
44764;SDS011;30484;52.382;5.260;2024-02-26T09:20:07;8.73;;;5.38;;
44764;SDS011;30484;52.382;5.260;2024-02-26T09:22:36;12.73;;;6.10;;
44764;SDS011;30484;52.382;5.260;2024-02-26T09:25:05;9.10;;;5.47;;
44764;SDS011;30484;52.382;5.260;2024-02-26T09:27:35;9.95;;;5.47;;
44764;SDS011;30484;52.382;5.260;2024-02-26T09:30:11;11.27;;;5.93;;
44764;SDS011;30484;52.382;5.260;2024-02-26T09:32:41;8.35;;;5.30;;
44764;SDS011;30484;52.382;5.260;2024-02-26T09:35:14;9.48;;;5.15;;
44764;SDS011;30484;52.382;5.260;2024-02-26T09:37:43;8.18;;;5.38;;
44764;SDS011;30484;52.382;5.260;2024-02-26T09:40:12;7.40;;;5.05;;
44764;SDS011;30484;52.382;5.260;2024-02-26T09:42:43;8.05;;;5.18;;
44764;SDS011;30484;52.382;5.260;2024-02-26T09:45:17;9.57;;;5.25;;
44764;SDS011;30484;52.382;5.260;2024-02-26T09:47:47;9.60;;;5.53;;
44764;SDS011;30484;52.382;5.260;2024-02-26T09:50:17;9.02;;;5.40;;
44764;SDS011;30484;52.382;5.260;2024-02-26T09:52:50;9.50;;;5.63;;
44764;SDS011;30484;52.382;5.260;2024-02-26T09:55:20;9.63;;;5.22;;
44764;SDS011;30484;52.382;5.260;2024-02-26T09:57:48;8.60;;;5.05;;
44764;SDS011;30484;52.382;5.260;2024-02-26T10:00:22;10.75;;;5.32;;
44764;SDS011;30484;52.382;5.260;2024-02-26T10:02:50;9.02;;;6.10;;
44764;SDS011;30484;52.382;5.260;2024-02-26T10:05:19;7.00;;;4.93;;
44764;SDS011;30484;52.382;5.260;2024-02-26T10:07:48;8.80;;;5.50;;
44764;SDS011;30484;52.382;5.260;2024-02-26T10:10:17;11.15;;;5.40;;
44764;SDS011;30484;52.382;5.260;2024-02-26T10:12:46;10.18;;;4.95;;
44764;SDS011;30484;52.382;5.260;2024-02-26T10:15:15;11.70;;;5.18;;
44764;SDS011;30484;52.382;5.260;2024-02-26T10:17:45;9.30;;;5.20;;
44764;SDS011;30484;52.382;5.260;2024-02-26T10:20:15;10.82;;;5.45;;
44764;SDS011;30484;52.382;5.260;2024-02-26T10:22:48;11.03;;;4.90;;
44764;SDS011;30484;52.382;5.260;2024-02-26T10:25:18;9.55;;;5.45;;
44764;SDS011;30484;52.382;5.260;2024-02-26T10:27:47;10.65;;;5.50;;
44764;SDS011;30484;52.382;5.260;2024-02-26T10:30:16;9.35;;;4.95;;
44764;SDS011;30484;52.382;5.260;2024-02-26T10:32:49;8.23;;;5.35;;
44764;SDS011;30484;52.382;5.260;2024-02-26T10:35:18;7.57;;;5.15;;
44764;SDS011;30484;52.382;5.260;2024-02-26T10:37:48;8.82;;;4.85;;
44764;SDS011;30484;52.382;5.260;2024-02-26T10:40:17;10.57;;;5.15;;
44764;SDS011;30484;52.382;5.260;2024-02-26T10:42:46;10.88;;;5.63;;
44764;SDS011;30484;52.382;5.260;2024-02-26T10:45:15;9.50;;;5.20;;
44764;SDS011;30484;52.382;5.260;2024-02-26T10:47:43;9.82;;;5.55;;
44764;SDS011;30484;52.382;5.260;2024-02-26T10:50:15;7.35;;;4.88;;
44764;SDS011;30484;52.382;5.260;2024-02-26T10:52:44;9.85;;;5.07;;
44764;SDS011;30484;52.382;5.260;2024-02-26T10:55:15;9.63;;;5.00;;
44764;SDS011;30484;52.382;5.260;2024-02-26T10:57:46;10.60;;;5.07;;
44764;SDS011;30484;52.382;5.260;2024-02-26T11:00:18;9.20;;;4.95;;
44764;SDS011;30484;52.382;5.260;2024-02-26T11:02:47;9.68;;;4.88;;
44764;SDS011;30484;52.382;5.260;2024-02-26T11:05:17;9.07;;;5.00;;
44764;SDS011;30484;52.382;5.260;2024-02-26T11:07:46;7.93;;;4.90;;
44764;SDS011;30484;52.382;5.260;2024-02-26T11:10:17;7.95;;;4.68;;
44764;SDS011;30484;52.382;5.260;2024-02-26T11:12:46;9.60;;;5.25;;
44764;SDS011;30484;52.382;5.260;2024-02-26T11:15:15;10.63;;;5.47;;
44764;SDS011;30484;52.382;5.260;2024-02-26T11:17:46;8.52;;;4.93;;
44764;SDS011;30484;52.382;5.260;2024-02-26T11:20:16;8.25;;;4.72;;
44764;SDS011;30484;52.382;5.260;2024-02-26T11:22:47;7.18;;;4.38;;
44764;SDS011;30484;52.382;5.260;2024-02-26T11:25:16;6.93;;;4.55;;
44764;SDS011;30484;52.382;5.260;2024-02-26T11:27:46;7.65;;;4.20;;
44764;SDS011;30484;52.382;5.260;2024-02-26T11:30:21;7.65;;;4.20;;
44764;SDS011;30484;52.382;5.260;2024-02-26T11:32:52;8.07;;;4.85;;
44764;SDS011;30484;52.382;5.260;2024-02-26T11:35:23;9.65;;;4.45;;
44764;SDS011;30484;52.382;5.260;2024-02-26T11:37:53;7.22;;;4.45;;
44764;SDS011;30484;52.382;5.260;2024-02-26T11:40:23;7.07;;;4.18;;
44764;SDS011;30484;52.382;5.260;2024-02-26T11:42:52;10.98;;;4.50;;
44764;SDS011;30484;52.382;5.260;2024-02-26T11:51:03;6.97;;;4.10;;
44764;SDS011;30484;52.382;5.260;2024-02-26T11:53:33;7.63;;;3.75;;
44764;SDS011;30484;52.382;5.260;2024-02-26T11:56:17;9.48;;;4.28;;
44764;SDS011;30484;52.382;5.260;2024-02-26T11:58:58;7.03;;;4.05;;
44764;SDS011;30484;52.382;5.260;2024-02-26T12:01:39;6.80;;;4.38;;
44764;SDS011;30484;52.382;5.260;2024-02-26T12:04:13;7.45;;;4.15;;
44764;SDS011;30484;52.382;5.260;2024-02-26T12:06:50;8.52;;;3.78;;
44764;SDS011;30484;52.382;5.260;2024-02-26T12:09:31;9.03;;;4.07;;
44764;SDS011;30484;52.382;5.260;2024-02-26T12:12:04;7.53;;;4.35;;
44764;SDS011;30484;52.382;5.260;2024-02-26T12:14:37;8.43;;;4.18;;
44764;SDS011;30484;52.382;5.260;2024-02-26T12:17:15;11.57;;;4.68;;
44764;SDS011;30484;52.382;5.260;2024-02-26T12:19:48;9.48;;;4.78;;
44764;SDS011;30484;52.382;5.260;2024-02-26T12:22:19;9.00;;;4.32;;
44764;SDS011;30484;52.382;5.260;2024-02-26T12:24:48;8.02;;;4.43;;
44764;SDS011;30484;52.382;5.260;2024-02-26T12:27:27;7.95;;;4.40;;
44764;SDS011;30484;52.382;5.260;2024-02-26T12:29:56;10.75;;;4.57;;
44764;SDS011;30484;52.382;5.260;2024-02-26T12:32:25;11.32;;;5.00;;
44764;SDS011;30484;52.382;5.260;2024-02-26T12:34:53;7.93;;;4.45;;
44764;SDS011;30484;52.382;5.260;2024-02-26T12:37:24;8.00;;;4.53;;
44764;SDS011;30484;52.382;5.260;2024-02-26T12:39:53;10.10;;;4.70;;
44764;SDS011;30484;52.382;5.260;2024-02-26T12:42:22;8.35;;;4.38;;
44764;SDS011;30484;52.382;5.260;2024-02-26T12:44:51;10.43;;;4.70;;
44764;SDS011;30484;52.382;5.260;2024-02-26T12:47:20;6.10;;;3.92;;
44764;SDS011;30484;52.382;5.260;2024-02-26T12:49:49;6.75;;;3.72;;
44764;SDS011;30484;52.382;5.260;2024-02-26T12:52:21;8.18;;;4.13;;
44764;SDS011;30484;52.382;5.260;2024-02-26T12:54:53;10.82;;;3.67;;
44764;SDS011;30484;52.382;5.260;2024-02-26T12:57:21;6.25;;;3.72;;
44764;SDS011;30484;52.382;5.260;2024-02-26T12:59:50;5.45;;;3.53;;
44764;SDS011;30484;52.382;5.260;2024-02-26T13:02:19;6.03;;;3.00;;
44764;SDS011;30484;52.382;5.260;2024-02-26T13:04:48;7.07;;;3.38;;
44764;SDS011;30484;52.382;5.260;2024-02-26T13:07:17;6.28;;;3.35;;
44764;SDS011;30484;52.382;5.260;2024-02-26T13:09:47;5.18;;;2.72;;
44764;SDS011;30484;52.382;5.260;2024-02-26T13:12:16;4.90;;;3.05;;
44764;SDS011;30484;52.382;5.260;2024-02-26T13:14:45;8.18;;;2.92;;
44764;SDS011;30484;52.382;5.260;2024-02-26T13:17:14;4.30;;;2.85;;
44764;SDS011;30484;52.382;5.260;2024-02-26T13:19:52;4.35;;;2.78;;
44764;SDS011;30484;52.382;5.260;2024-02-26T13:22:21;4.13;;;2.97;;
44764;SDS011;30484;52.382;5.260;2024-02-26T13:24:55;4.90;;;3.03;;
44764;SDS011;30484;52.382;5.260;2024-02-26T13:27:24;4.32;;;3.00;;
44764;SDS011;30484;52.382;5.260;2024-02-26T13:30:03;3.63;;;2.47;;
44764;SDS011;30484;52.382;5.260;2024-02-26T13:32:38;5.00;;;2.80;;
44764;SDS011;30484;52.382;5.260;2024-02-26T13:35:10;6.78;;;3.00;;
44764;SDS011;30484;52.382;5.260;2024-02-26T13:37:40;4.50;;;3.10;;
44764;SDS011;30484;52.382;5.260;2024-02-26T13:40:10;4.45;;;2.95;;
44764;SDS011;30484;52.382;5.260;2024-02-26T13:42:39;5.18;;;3.10;;
44764;SDS011;30484;52.382;5.260;2024-02-26T13:45:08;5.18;;;3.00;;
44764;SDS011;30484;52.382;5.260;2024-02-26T13:47:37;5.80;;;3.28;;
44764;SDS011;30484;52.382;5.260;2024-02-26T13:50:07;6.05;;;2.65;;
44764;SDS011;30484;52.382;5.260;2024-02-26T13:52:36;6.00;;;2.92;;
44764;SDS011;30484;52.382;5.260;2024-02-26T13:55:05;5.38;;;2.85;;
44764;SDS011;30484;52.382;5.260;2024-02-26T13:57:36;5.82;;;2.53;;
44764;SDS011;30484;52.382;5.260;2024-02-26T14:00:05;7.10;;;3.03;;
44764;SDS011;30484;52.382;5.260;2024-02-26T14:02:39;5.40;;;2.50;;
44764;SDS011;30484;52.382;5.260;2024-02-26T14:05:07;5.38;;;2.17;;
44764;SDS011;30484;52.382;5.260;2024-02-26T14:07:36;5.28;;;2.63;;
44764;SDS011;30484;52.382;5.260;2024-02-26T14:10:06;4.22;;;2.58;;
44764;SDS011;30484;52.382;5.260;2024-02-26T14:12:38;6.78;;;2.97;;
44764;SDS011;30484;52.382;5.260;2024-02-26T14:15:07;9.50;;;2.60;;
44764;SDS011;30484;52.382;5.260;2024-02-26T14:17:37;5.90;;;2.75;;
44764;SDS011;30484;52.382;5.260;2024-02-26T14:20:07;8.07;;;3.10;;
44764;SDS011;30484;52.382;5.260;2024-02-26T14:22:36;6.80;;;3.08;;
44764;SDS011;30484;52.382;5.260;2024-02-26T14:25:05;5.43;;;3.00;;
44764;SDS011;30484;52.382;5.260;2024-02-26T14:27:36;10.35;;;3.10;;
44764;SDS011;30484;52.382;5.260;2024-02-26T14:30:06;8.77;;;3.10;;
44764;SDS011;30484;52.382;5.260;2024-02-26T14:32:36;5.75;;;3.08;;
44764;SDS011;30484;52.382;5.260;2024-02-26T14:35:05;8.02;;;3.00;;
44764;SDS011;30484;52.382;5.260;2024-02-26T14:37:41;9.50;;;3.58;;
44764;SDS011;30484;52.382;5.260;2024-02-26T14:40:13;5.03;;;2.85;;
44764;SDS011;30484;52.382;5.260;2024-02-26T14:42:44;9.45;;;3.50;;
44764;SDS011;30484;52.382;5.260;2024-02-26T14:45:13;4.80;;;3.28;;
44764;SDS011;30484;52.382;5.260;2024-02-26T14:47:43;6.38;;;3.25;;
44764;SDS011;30484;52.382;5.260;2024-02-26T14:50:11;6.88;;;3.47;;
44764;SDS011;30484;52.382;5.260;2024-02-26T14:52:39;8.70;;;3.80;;
44764;SDS011;30484;52.382;5.260;2024-02-26T14:55:08;7.22;;;3.40;;